PATG

Details ICAO PATG (TOG)
Name TOGIAK
Region USA (Alaska)
Timezone Unknown (UTC+0.0)
Plans Departing 3
Arriving 3
Stats Elevation 21 ft / 6 m (AMSL)
Location 59.054237° -160.393610°
Runways 2
Magnetic Variation 11.984° E
Sunrise 2017-12-15 19:32:02 UTC / 2017-12-15 19:32:02 Local
Sunset 2017-12-16 01:44:38 UTC / 2017-12-16 01:44:38 Local
Advertisement - Login to hide

Runways

ID Width Length Bearing (true) Bearing (mag) Surface Threshold Offset Overrun Length
03 98 ft / 30 m 4,217 ft / 1,285 m 45.79° 33.81° Gravel 0 ft / 0 m 300 ft / 91 m
10 49 ft / 15 m 1,118 ft / 341 m 111.27° 99.29° Gravel 0 ft / 0 m 0 ft / 0 m
21 98 ft / 30 m 4,217 ft / 1,285 m 225.80° 213.82° Gravel 0 ft / 0 m 300 ft / 91 m
28 49 ft / 15 m 1,118 ft / 341 m 291.27° 279.29° Gravel 0 ft / 0 m 0 ft / 0 m

Map

Weather


0- 5 10 15 20 25 30 35+ Temperature / ° C

Clouds and Precipitation
Forecast for 2017-12-15 18:00 UTC. Updated an hour ago

Ground ~20,000 ft ~40,000 ft Winds

METAR

PATG 151811Z AUTO 08023KT 8SM -RA FEW009 BKN013 OVC020 01/00 A2885 RMK AO2 PK WND 08029/1801 RAB02SNE02 P0000 FZRANO

TAF

Not found

Frequencies

Recorded 119.30 MHz AWOS 3
Unicom 122.50 MHz CTAF
Warning: Do not use this data for real-world aviation or navigation. No guarantee of current accuracy is given.